Terminal Aerodrome Forecast
Issued by NWS Buffalo, NY

Home | Current Version | Previous Version | Text Only | Print | Product List | Glossary On
Versions: 1 2 3 4 5 6 7 8 9 10 11 12 13 14 15 16 17 18 19 20 21 22 23 24 25 26
750
FTUS41 KBUF 202320
TAFART
TAF
KART 202320Z 2100/2124 23006KT P6SM OVC040
     FM210300 21010KT P6SM BKN035
     FM210800 18012KT P6SM SCT200 WS020/22045KT
     FM211300 19014G22KT P6SM SCT200=

USA.gov is the U.S. government's official web portal to all federal, state and local government web resources and services.